Latest Weather Observations for Victoria River Downs

IDD60801

Issued at 1:05 pm CST Friday 31 October 2014 (issued every 30 minutes, with the page automatically refreshed every 10 minutes)

About weather observations | Map of weather stations | Latest weather observations for NT | Other Formats
Station Details ID: 014825 Name: VICTORIA RIVER DOWNS Lat: -16.40 Lon: 131.01 Height: 88.5 m
Data from the previous 72 hours. | See also: Recent months at Victoria River Downs
Date/Time
CST
Temp
°C
App
Temp
°C
Dew
Point
Rel
Hum
%
Delta-T
°C
Wind Press
QNH
hPa
Press
MSL
hPa
Rain
since 9 am
mm
Dir
 
Spd
km/h
Gust
km/h
Spd
kts
Gust
kts
31/01:00pm 39.1 37.2 14.2 23 15.6 N 17 30 9 16 1007.5 - 0.0
31/12:30pm 39.3 37.4 14.3 22 15.7 N 17 30 9 16 1008.0 - 0.0
31/12:00pm 37.7 35.7 14.9 26 14.4 NNW 19 33 10 18 1008.6 1008.0 0.0
31/11:30am 37.8 36.4 15.6 27 14.1 NNW 17 26 9 14 1009.1 - 0.0
31/11:00am 35.9 34.7 16.1 30 12.6 NNW 17 28 9 15 1009.5 - 0.0
31/10:30am 35.3 34.7 16.6 33 12.0 NNW 15 28 8 15 1009.7 - 0.0
31/10:00am 34.8 33.5 15.7 32 12.0 NW 17 26 9 14 1010.0 - 0.0
31/09:30am 34.4 33.4 18.0 37 10.7 WNW 20 33 11 18 1010.1 - 0.0
31/09:00am 33.0 32.9 18.7 42 9.3 NW 17 26 9 14 1010.1 - 0.0
31/08:30am 31.4 32.3 20.0 50 7.6 WNW 15 26 8 14 1010.2 - 0.0
31/08:00am 30.4 31.5 21.2 58 6.2 WNW 17 20 9 11 1010.0 - 0.0
31/07:30am 29.3 31.6 21.3 62 5.4 NNW 11 13 6 7 1009.8 - 0.0
31/07:00am 28.2 30.6 21.5 67 4.5 NNW 11 15 6 8 1009.3 - 0.0
31/06:30am 27.7 29.8 21.0 67 4.5 NNW 11 13 6 7 1009.2 - 0.0
31/06:00am 27.2 29.8 20.5 67 4.4 NNW 7 11 4 6 1008.7 1008.1 0.0
31/05:30am 27.6 30.2 20.4 65 4.7 N 7 9 4 5 1008.3 - 0.0
31/05:00am 28.3 30.7 20.8 63 5.0 NNW 9 13 5 7 1008.0 - 0.0
31/04:30am 28.4 30.7 20.7 63 5.1 NW 9 13 5 7 1007.6 - 0.0
31/04:00am 28.8 31.0 20.5 61 5.5 NW 9 15 5 8 1007.3 - 0.0
31/03:30am 29.4 30.6 20.0 57 6.2 NNW 13 19 7 10 1006.9 - 0.0
31/03:00am 29.8 29.9 18.3 50 7.4 NNW 15 20 8 11 1006.6 1006.0 0.0
31/02:30am 30.2 30.5 16.9 44 8.4 NW 11 15 6 8 1006.2 - 0.0
31/02:00am 30.4 30.2 15.7 41 9.1 NW 11 15 6 8 1006.3 - 0.0
31/01:30am 28.7 28.3 14.1 40 8.8 NW 9 11 5 6 1006.6 - 0.0
31/01:00am 27.4 26.5 11.4 37 9.2 NW 7 9 4 5 1006.7 - 0.0
31/12:30am 27.1 26.4 9.9 34 9.6 NNW 4 9 2 5 1007.0 - 0.0
31/12:00am 27.4 26.2 10.2 34 9.7 NW 7 9 4 5 1007.3 1006.7 0.0
 
Date/Time
CST
Temp
°C
App
Temp
°C
Dew
Point
Rel
Hum
%
Delta-T
°C
Wind Press
QNH
hPa
Press
MSL
hPa
Rain
since 9 am
mm
Dir
 
Spd
km/h
Gust
km/h
Spd
kts
Gust
kts
30/11:30pm 27.0 27.0 14.1 45 7.7 SW 7 7 4 4 1007.3 - 0.0
30/11:00pm 27.8 27.7 9.6 32 10.1 CALM 0 0 0 0 1007.3 - 0.0
30/10:30pm 28.5 30.4 15.8 46 7.8 CALM 0 0 0 0 1007.4 - 0.0
30/10:00pm 29.2 30.9 15.3 42 8.5 CALM 0 0 0 0 1007.3 - 0.0
30/09:30pm 30.2 30.2 9.7 28 11.6 CALM 0 0 0 0 1007.1 - 0.0
30/09:00pm 31.2 31.4 10.5 28 11.9 CALM 0 6 0 3 1006.9 1006.3 0.0
30/08:30pm 32.7 32.2 10.7 26 12.8 NE 4 6 2 3 1006.6 - 0.0
30/08:00pm 34.1 32.7 8.7 21 14.4 NE 6 7 3 4 1006.4 - 0.0
30/07:30pm 35.6 33.9 7.6 18 15.7 NNE 6 7 3 4 1006.1 - 0.0
30/07:00pm 38.0 35.6 6.9 15 17.5 NNE 9 11 5 6 1005.8 - 0.0
30/06:30pm 39.7 36.2 7.2 14 18.5 NE 15 20 8 11 1005.5 - 0.0
30/06:00pm 40.4 37.4 7.8 14 18.8 ENE 13 19 7 10 1005.2 1004.5 0.0
30/05:30pm 40.9 37.4 7.1 13 19.3 E 15 24 8 13 1005.0 - 0.0
30/05:00pm 40.9 38.0 8.1 14 19.0 N 13 22 7 12 1005.0 - 0.0
30/04:30pm 41.5 38.1 7.5 13 19.6 NE 15 28 8 15 1005.0 - 0.0
30/04:00pm 40.9 37.2 8.1 14 19.0 ENE 17 35 9 19 1005.2 - 0.0
30/03:30pm 41.3 38.5 8.5 14 19.1 NNE 13 26 7 14 1005.5 - 0.0
30/03:00pm 41.8 39.4 9.9 15 19.1 E 13 22 7 12 1005.8 1005.2 0.0
30/02:30pm 40.9 37.6 8.1 14 19.0 NE 15 28 8 15 1006.1 - 0.0
30/02:00pm 40.9 36.9 9.2 15 18.6 NE 20 28 11 15 1006.5 - 0.0
30/01:30pm 40.4 36.8 10.6 17 17.8 NE 20 32 11 17 1007.0 - 0.0
30/01:00pm 40.0 37.6 12.8 20 16.8 N 17 26 9 14 1007.5 - 0.0
30/12:30pm 39.5 37.0 12.4 20 16.6 N 17 33 9 18 1008.2 - 0.0
30/12:00pm 38.8 37.0 13.2 21 15.8 N 15 24 8 13 1008.7 1008.1 0.0
30/11:30am 38.7 37.2 13.2 22 15.7 NNW 13 19 7 10 1009.2 - 0.0
30/11:00am 37.5 36.4 15.3 26 14.0 NNW 15 24 8 13 1009.7 - 0.0
30/10:30am 36.6 36.0 16.7 30 12.8 NNW 15 26 8 14 1010.2 - 0.0
30/10:00am 35.4 35.4 17.1 33 11.8 NNW 13 19 7 10 1010.5 - 0.0
30/09:30am 34.3 35.0 18.8 40 10.2 NNW 13 20 7 11 1010.8 - 0.0
30/09:00am 32.7 32.9 18.5 43 9.3 NW 15 19 8 10 1010.7 1010.1 0.0
30/08:30am 31.5 31.7 18.5 46 8.4 NW 15 19 8 10 1010.6 - 0.0
30/08:00am 30.6 30.7 15.5 40 9.4 NNW 9 15 5 8 1010.5 - 0.0
30/07:30am 29.1 28.9 12.9 37 9.6 WNW 6 9 3 5 1010.2 - 0.0
30/07:28am 28.6 28.8 12.9 38 9.3 NNW 4 7 2 4 1010.2 - 0.0
30/07:00am 25.4 24.1 10.1 38 8.5 NNE 7 7 4 4 1009.9 - 0.0
30/06:30am 23.6 23.7 10.3 43 7.3 CALM 0 0 0 0 1009.6 - 0.0
30/06:00am 24.0 23.7 11.3 45 7.2 W 4 9 2 5 1009.2 1008.6 0.0
30/05:30am 24.3 23.5 12.9 49 6.6 ENE 9 11 5 6 1008.9 - 0.0
30/05:00am 24.2 25.6 14.3 54 5.9 CALM 0 0 0 0 1008.6 - 0.0
30/04:30am 24.4 22.7 9.9 40 8.0 NE 9 11 5 6 1008.3 - 0.0
30/04:00am 24.0 23.1 9.2 39 8.0 W 4 7 2 4 1008.5 - 0.0
30/03:30am 25.3 25.0 13.2 47 7.1 E 7 9 4 5 1008.3 - 0.0
30/03:00am 25.4 24.9 10.8 40 8.2 NNE 4 6 2 3 1008.2 1007.6 0.0
30/02:30am 25.1 24.0 10.6 40 8.1 NE 7 11 4 6 1008.5 - 0.0
30/02:00am 25.9 25.7 13.1 45 7.5 SSE 6 9 3 5 1008.4 - 0.0
30/01:30am 25.3 23.9 8.7 35 9.0 WNW 6 7 3 4 1008.4 - 0.0
30/01:00am 25.7 25.4 8.7 34 9.2 CALM 0 0 0 0 1008.6 - 0.0
30/12:30am 26.2 25.9 8.7 33 9.5 CALM 0 0 0 0 1008.8 - 0.0
30/12:00am 26.8 26.4 8.3 31 10.1 CALM 0 0 0 0 1009.2 1008.6 0.0
 
Date/Time
CST
Temp
°C
App
Temp
°C
Dew
Point
Rel
Hum
%
Delta-T
°C
Wind Press
QNH
hPa
Press
MSL
hPa
Rain
since 9 am
mm
Dir
 
Spd
km/h
Gust
km/h
Spd
kts
Gust
kts
29/11:30pm 27.3 27.0 8.7 31 10.2 CALM 0 0 0 0 1009.4 - 0.0
29/11:00pm 27.6 27.6 9.9 33 9.9 CALM 0 0 0 0 1009.6 - 0.0
29/10:30pm 28.2 28.2 9.9 32 10.3 CALM 0 0 0 0 1009.5 - 0.0
29/10:00pm 28.8 28.7 9.5 30 10.8 CALM 0 0 0 0 1009.3 - 0.0
29/09:30pm 29.5 29.2 8.5 27 11.6 CALM 0 0 0 0 1009.1 - 0.0
29/09:00pm 30.4 28.8 8.7 26 12.1 W 7 7 4 4 1008.9 1008.3 0.0
29/08:30pm 31.2 30.9 8.8 25 12.5 CALM 0 0 0 0 1008.8 - 0.0
29/08:00pm 32.5 32.2 8.7 23 13.4 CALM 0 0 0 0 1008.5 - 0.0
29/07:30pm 34.1 33.8 8.7 21 14.4 CALM 0 0 0 0 1008.3 - 0.0
29/07:00pm 36.0 34.8 8.0 18 15.8 ENE 4 7 2 4 1008.0 - 0.0
29/06:30pm 37.7 35.8 7.6 16 17.0 E 7 9 4 5 1007.7 - 0.0
29/06:00pm 38.7 37.4 9.3 17 17.2 E 6 9 3 5 1007.4 1006.8 0.0
29/05:30pm 39.8 36.7 7.3 14 18.5 E 13 19 7 10 1007.3 - 0.0
29/05:00pm 40.2 38.6 8.6 15 18.4 NE 7 13 4 7 1007.2 - 0.0
29/04:30pm 39.4 36.6 7.0 14 18.3 E 11 17 6 9 1007.3 - 0.0
29/04:00pm 40.6 37.4 6.8 13 19.2 ESE 13 20 7 11 1007.5 - 0.0
29/03:30pm 40.3 37.3 7.7 14 18.7 E 13 26 7 14 1007.8 - 0.0
29/03:00pm 40.2 36.7 8.6 15 18.4 NE 17 22 9 12 1008.1 1007.5 0.0
29/02:30pm 39.6 37.5 8.1 15 18.1 ENE 9 15 5 8 1008.5 - 0.0
29/02:00pm 39.6 36.1 7.1 14 18.4 ENE 15 26 8 14 1009.2 - 0.0
29/01:30pm 40.0 38.0 8.5 15 18.3 NE 9 19 5 10 1009.7 - 0.0
29/01:00pm 39.3 37.4 8.9 16 17.7 E 9 17 5 9 1010.4 - 0.0
29/12:30pm 39.2 37.5 9.7 17 17.3 W 9 13 5 7 1011.0 - 0.0
29/12:00pm 37.5 35.3 10.7 20 15.9 NNE 13 26 7 14 1011.4 1010.8 0.0
29/11:30am 37.2 35.3 10.5 20 15.8 N 11 17 6 9 1011.9 - 0.0
29/11:00am 36.8 35.2 10.2 20 15.6 NE 9 19 5 10 1012.4 - 0.0
29/10:30am 35.6 33.2 11.3 23 14.4 N 15 26 8 14 1012.7 - 0.0
29/10:00am 35.5 33.4 11.2 23 14.4 NW 13 24 7 13 1012.8 - 0.0
29/09:30am 34.1 32.6 11.9 26 13.2 NNW 11 17 6 9 1013.0 - 0.0
29/09:00am 33.6 31.5 8.3 21 14.2 N 9 15 5 8 1013.0 1012.3 0.0
29/08:30am 32.0 28.7 6.2 20 13.9 NNE 13 15 7 8 1013.1 - 0.0
29/08:00am 30.7 27.7 5.9 21 13.2 ENE 11 15 6 8 1013.0 - 0.0
29/07:30am 28.2 26.2 8.5 29 10.8 E 9 13 5 7 1012.8 - 0.0
29/07:24am 27.4 25.0 8.8 31 10.2 E 11 15 6 8 1012.8 - 0.0
29/07:23am 27.1 24.8 9.0 32 10.0 ESE 11 15 6 8 1012.8 - 0.0
29/07:00am 22.4 22.2 8.9 42 7.2 CALM 0 6 0 3 1012.0 - 0.0
29/06:30am 22.2 20.8 9.7 45 6.8 E 7 9 4 5 1011.6 - 0.0
29/06:00am 22.1 21.2 10.6 48 6.3 SE 6 9 3 5 1011.3 1010.7 0.0
29/05:30am 22.4 21.9 10.9 48 6.4 SW 4 7 2 4 1010.9 - 0.0
29/05:00am 22.8 22.6 9.2 42 7.3 CALM 0 0 0 0 1010.6 - 0.0
29/04:30am 23.1 23.2 10.2 44 7.1 CALM 0 0 0 0 1010.2 - 0.0
29/04:00am 23.3 23.0 8.6 39 7.9 CALM 0 0 0 0 1009.9 - 0.0
29/03:30am 24.0 23.8 9.2 39 8.0 CALM 0 0 0 0 1009.7 - 0.0
29/03:00am 25.7 24.4 9.1 35 9.1 SSE 6 7 3 4 1009.6 1008.9 0.0
29/02:30am 26.1 26.1 9.9 36 9.0 CALM 0 4 0 2 1009.4 - 0.0
29/02:00am 27.4 25.6 7.8 29 10.6 NNE 7 7 4 4 1009.5 - 0.0
29/01:30am 27.7 25.4 7.5 28 10.9 NE 9 13 5 7 1009.8 - 0.0
29/01:00am 26.2 25.9 8.7 33 9.5 CALM 0 6 0 3 1009.7 - 0.0
29/12:30am 26.3 25.9 8.3 32 9.7 CALM 0 0 0 0 1009.9 - 0.0
29/12:00am 26.9 25.7 7.9 30 10.3 NE 4 7 2 4 1010.0 1009.5 0.0
 
Date/Time
CST
Temp
°C
App
Temp
°C
Dew
Point
Rel
Hum
%
Delta-T
°C
Wind Press
QNH
hPa
Press
MSL
hPa
Rain
since 9 am
mm
Dir
 
Spd
km/h
Gust
km/h
Spd
kts
Gust
kts
28/11:30pm 27.3 26.5 6.7 27 10.9 CALM 0 0 0 0 1010.1 - 0.0
28/11:00pm 28.1 27.7 8.4 29 10.8 CALM 0 0 0 0 1010.1 - 0.0
28/10:30pm 28.5 27.7 11.1 34 10.0 NE 6 6 3 3 1010.0 - 0.0
28/10:00pm 29.1 27.8 9.3 29 11.1 NE 6 7 3 4 1009.7 - 0.0
28/09:30pm 29.9 27.8 6.5 23 12.5 ENE 7 9 4 5 1009.5 - 0.0
28/09:00pm 30.5 28.1 7.0 23 12.7 NE 9 9 5 5 1009.1 1008.5 0.0
28/08:30pm 31.4 29.3 6.5 21 13.4 E 7 9 4 5 1008.7 - 0.0
28/08:00pm 33.0 31.0 7.1 20 14.2 E 7 9 4 5 1008.4 - 0.0
28/07:30pm 33.9 31.5 5.4 17 15.3 E 7 9 4 5 1008.0 - 0.0
28/07:00pm 35.9 33.7 5.2 15 16.6 E 6 7 3 4 1007.6 - 0.0
28/06:30pm 38.0 34.7 4.8 13 18.1 E 11 17 6 9 1007.4 - 0.0
28/06:00pm 39.0 35.2 5.6 13 18.5 E 15 26 8 14 1007.2 1006.6 0.0
28/05:30pm 39.6 35.2 4.9 12 19.0 ENE 17 26 9 14 1007.1 - 0.0
28/05:00pm 39.6 35.5 6.1 13 18.7 ENE 17 30 9 16 1007.1 - 0.0
28/04:30pm 40.3 36.8 5.4 12 19.4 E 13 19 7 10 1007.0 - 0.0
28/04:00pm 40.7 36.8 6.9 13 19.2 E 17 39 9 21 1007.2 - 0.0
28/03:30pm 40.8 36.5 7.0 13 19.2 E 19 30 10 16 1007.5 - 0.0
28/03:00pm 40.1 35.9 7.5 14 18.7 ENE 19 30 10 16 1007.9 1007.3 0.0
28/02:30pm 40.0 36.9 7.4 14 18.6 E 13 30 7 16 1008.5 - 0.0
28/02:00pm 39.9 35.7 7.4 14 18.5 NNE 19 28 10 15 1009.1 - 0.0
28/01:30pm 38.6 34.4 7.4 15 17.7 E 19 32 10 17 1009.6 - 0.0

Other Formats:

Comma delimited format used in spreadsheet applications
http://www.bom.gov.au/fwo/IDD60801/IDD60801.94232.axf

JavaScript Object Notation format (JSON) in row-major order
http://www.bom.gov.au/fwo/IDD60801/IDD60801.94232.json